sensor_id;sensor_type;location;lat;lon;timestamp;P1;durP1;ratioP1;P2;durP2;ratioP2
32130;SDS011;18639;50.716;7.086;2023-05-13T00:01:17;3.58;;;2.00;;
32130;SDS011;18639;50.716;7.086;2023-05-13T00:03:42;4.53;;;2.35;;
32130;SDS011;18639;50.716;7.086;2023-05-13T00:06:08;4.10;;;1.90;;
32130;SDS011;18639;50.716;7.086;2023-05-13T00:08:33;4.15;;;2.25;;
32130;SDS011;18639;50.716;7.086;2023-05-13T00:10:59;3.78;;;1.90;;
32130;SDS011;18639;50.716;7.086;2023-05-13T00:13:24;3.95;;;2.10;;
32130;SDS011;18639;50.716;7.086;2023-05-13T00:15:50;4.63;;;2.05;;
32130;SDS011;18639;50.716;7.086;2023-05-13T00:18:16;3.83;;;1.88;;
32130;SDS011;18639;50.716;7.086;2023-05-13T00:20:41;10.00;;;2.38;;
32130;SDS011;18639;50.716;7.086;2023-05-13T00:23:06;4.07;;;2.20;;
32130;SDS011;18639;50.716;7.086;2023-05-13T00:25:32;5.10;;;2.45;;
32130;SDS011;18639;50.716;7.086;2023-05-13T00:27:57;4.63;;;2.30;;
32130;SDS011;18639;50.716;7.086;2023-05-13T00:30:23;5.35;;;2.17;;
32130;SDS011;18639;50.716;7.086;2023-05-13T00:32:48;3.63;;;2.33;;
32130;SDS011;18639;50.716;7.086;2023-05-13T00:35:13;3.88;;;2.13;;
32130;SDS011;18639;50.716;7.086;2023-05-13T00:37:38;3.65;;;2.17;;
32130;SDS011;18639;50.716;7.086;2023-05-13T00:40:04;2.80;;;1.85;;
32130;SDS011;18639;50.716;7.086;2023-05-13T00:42:30;4.78;;;2.13;;
32130;SDS011;18639;50.716;7.086;2023-05-13T00:44:55;6.43;;;2.42;;
32130;SDS011;18639;50.716;7.086;2023-05-13T00:47:20;4.85;;;2.63;;
32130;SDS011;18639;50.716;7.086;2023-05-13T00:49:46;6.65;;;2.47;;
32130;SDS011;18639;50.716;7.086;2023-05-13T00:52:11;5.32;;;2.25;;
32130;SDS011;18639;50.716;7.086;2023-05-13T00:54:37;3.88;;;2.10;;
32130;SDS011;18639;50.716;7.086;2023-05-13T00:57:02;2.92;;;1.70;;
32130;SDS011;18639;50.716;7.086;2023-05-13T00:59:28;3.70;;;2.00;;
32130;SDS011;18639;50.716;7.086;2023-05-13T01:07:43;8.65;;;2.22;;
32130;SDS011;18639;50.716;7.086;2023-05-13T01:10:58;4.28;;;1.90;;
32130;SDS011;18639;50.716;7.086;2023-05-13T01:13:14;3.42;;;1.95;;
32130;SDS011;18639;50.716;7.086;2023-05-13T01:15:49;4.55;;;1.85;;
32130;SDS011;18639;50.716;7.086;2023-05-13T01:18:51;4.18;;;1.92;;
32130;SDS011;18639;50.716;7.086;2023-05-13T01:21:26;4.95;;;2.17;;
32130;SDS011;18639;50.716;7.086;2023-05-13T01:23:53;3.33;;;1.75;;
32130;SDS011;18639;50.716;7.086;2023-05-13T01:26:19;3.35;;;2.10;;
32130;SDS011;18639;50.716;7.086;2023-05-13T01:28:47;4.60;;;2.05;;
32130;SDS011;18639;50.716;7.086;2023-05-13T01:31:13;2.55;;;1.63;;
32130;SDS011;18639;50.716;7.086;2023-05-13T01:33:39;3.72;;;1.60;;
32130;SDS011;18639;50.716;7.086;2023-05-13T01:36:05;4.43;;;2.08;;
32130;SDS011;18639;50.716;7.086;2023-05-13T01:38:32;3.40;;;1.90;;
32130;SDS011;18639;50.716;7.086;2023-05-13T01:40:59;4.03;;;2.67;;
32130;SDS011;18639;50.716;7.086;2023-05-13T01:43:25;4.18;;;2.10;;
32130;SDS011;18639;50.716;7.086;2023-05-13T01:45:50;4.03;;;2.33;;
32130;SDS011;18639;50.716;7.086;2023-05-13T01:48:15;4.03;;;2.25;;
32130;SDS011;18639;50.716;7.086;2023-05-13T01:50:42;4.70;;;2.40;;
32130;SDS011;18639;50.716;7.086;2023-05-13T01:53:07;12.32;;;2.05;;
32130;SDS011;18639;50.716;7.086;2023-05-13T01:55:33;4.47;;;1.80;;
32130;SDS011;18639;50.716;7.086;2023-05-13T01:57:58;3.83;;;1.73;;
32130;SDS011;18639;50.716;7.086;2023-05-13T02:00:23;3.05;;;1.98;;
32130;SDS011;18639;50.716;7.086;2023-05-13T02:02:48;5.30;;;1.63;;
32130;SDS011;18639;50.716;7.086;2023-05-13T02:05:14;3.47;;;1.67;;
32130;SDS011;18639;50.716;7.086;2023-05-13T02:07:39;4.38;;;2.03;;
32130;SDS011;18639;50.716;7.086;2023-05-13T02:10:04;7.40;;;2.08;;
32130;SDS011;18639;50.716;7.086;2023-05-13T02:12:30;2.40;;;1.50;;
32130;SDS011;18639;50.716;7.086;2023-05-13T02:14:55;4.45;;;1.98;;
32130;SDS011;18639;50.716;7.086;2023-05-13T02:17:20;4.78;;;1.85;;
32130;SDS011;18639;50.716;7.086;2023-05-13T02:19:46;3.40;;;1.83;;
32130;SDS011;18639;50.716;7.086;2023-05-13T02:22:11;3.65;;;2.00;;
32130;SDS011;18639;50.716;7.086;2023-05-13T02:24:38;4.65;;;2.10;;
32130;SDS011;18639;50.716;7.086;2023-05-13T02:27:06;5.18;;;2.30;;
32130;SDS011;18639;50.716;7.086;2023-05-13T02:29:32;2.80;;;1.70;;
32130;SDS011;18639;50.716;7.086;2023-05-13T02:31:58;3.40;;;2.15;;
32130;SDS011;18639;50.716;7.086;2023-05-13T02:34:23;7.43;;;2.55;;
32130;SDS011;18639;50.716;7.086;2023-05-13T02:36:48;5.82;;;2.22;;
32130;SDS011;18639;50.716;7.086;2023-05-13T02:39:14;3.00;;;1.77;;
32130;SDS011;18639;50.716;7.086;2023-05-13T02:41:39;6.22;;;1.92;;
32130;SDS011;18639;50.716;7.086;2023-05-13T02:44:05;5.50;;;2.70;;
32130;SDS011;18639;50.716;7.086;2023-05-13T02:46:30;4.90;;;1.90;;
32130;SDS011;18639;50.716;7.086;2023-05-13T02:48:55;4.45;;;2.33;;
32130;SDS011;18639;50.716;7.086;2023-05-13T02:51:21;6.22;;;2.45;;
32130;SDS011;18639;50.716;7.086;2023-05-13T02:53:46;3.95;;;2.08;;
32130;SDS011;18639;50.716;7.086;2023-05-13T02:56:11;4.57;;;2.38;;
32130;SDS011;18639;50.716;7.086;2023-05-13T02:58:40;4.50;;;2.50;;
32130;SDS011;18639;50.716;7.086;2023-05-13T03:01:05;5.57;;;2.33;;
32130;SDS011;18639;50.716;7.086;2023-05-13T03:03:30;4.50;;;2.35;;
32130;SDS011;18639;50.716;7.086;2023-05-13T03:05:55;5.68;;;2.42;;
32130;SDS011;18639;50.716;7.086;2023-05-13T03:08:21;11.15;;;2.50;;
32130;SDS011;18639;50.716;7.086;2023-05-13T03:10:46;4.30;;;2.50;;
32130;SDS011;18639;50.716;7.086;2023-05-13T03:13:11;6.78;;;2.13;;
32130;SDS011;18639;50.716;7.086;2023-05-13T03:15:36;5.65;;;2.40;;
32130;SDS011;18639;50.716;7.086;2023-05-13T03:18:02;4.93;;;2.67;;
32130;SDS011;18639;50.716;7.086;2023-05-13T03:20:27;5.30;;;2.40;;
32130;SDS011;18639;50.716;7.086;2023-05-13T03:22:52;4.35;;;2.10;;
32130;SDS011;18639;50.716;7.086;2023-05-13T03:25:18;3.03;;;1.70;;
32130;SDS011;18639;50.716;7.086;2023-05-13T03:27:43;6.40;;;2.53;;
32130;SDS011;18639;50.716;7.086;2023-05-13T03:30:08;4.32;;;2.13;;
32130;SDS011;18639;50.716;7.086;2023-05-13T03:32:34;5.97;;;2.75;;
32130;SDS011;18639;50.716;7.086;2023-05-13T03:34:59;6.95;;;2.72;;
32130;SDS011;18639;50.716;7.086;2023-05-13T03:37:25;4.25;;;2.40;;
32130;SDS011;18639;50.716;7.086;2023-05-13T03:39:50;5.47;;;2.47;;
32130;SDS011;18639;50.716;7.086;2023-05-13T03:42:15;5.30;;;2.70;;
32130;SDS011;18639;50.716;7.086;2023-05-13T03:44:41;5.15;;;2.72;;
32130;SDS011;18639;50.716;7.086;2023-05-13T03:47:06;5.47;;;2.72;;
32130;SDS011;18639;50.716;7.086;2023-05-13T03:49:31;3.65;;;2.10;;
32130;SDS011;18639;50.716;7.086;2023-05-13T03:51:57;5.63;;;2.50;;
32130;SDS011;18639;50.716;7.086;2023-05-13T03:54:22;6.22;;;2.72;;
32130;SDS011;18639;50.716;7.086;2023-05-13T03:56:47;5.18;;;2.30;;
32130;SDS011;18639;50.716;7.086;2023-05-13T03:59:12;7.00;;;2.95;;
32130;SDS011;18639;50.716;7.086;2023-05-13T04:01:38;9.07;;;3.03;;
32130;SDS011;18639;50.716;7.086;2023-05-13T04:04:03;6.20;;;2.80;;
32130;SDS011;18639;50.716;7.086;2023-05-13T04:06:29;5.53;;;2.75;;
32130;SDS011;18639;50.716;7.086;2023-05-13T04:08:55;5.40;;;2.30;;
32130;SDS011;18639;50.716;7.086;2023-05-13T04:11:20;6.90;;;2.80;;
32130;SDS011;18639;50.716;7.086;2023-05-13T04:13:46;7.05;;;3.40;;
32130;SDS011;18639;50.716;7.086;2023-05-13T04:16:11;5.13;;;2.42;;
32130;SDS011;18639;50.716;7.086;2023-05-13T04:18:37;5.78;;;2.55;;
32130;SDS011;18639;50.716;7.086;2023-05-13T04:21:08;4.07;;;2.30;;
32130;SDS011;18639;50.716;7.086;2023-05-13T04:23:34;5.78;;;2.50;;
32130;SDS011;18639;50.716;7.086;2023-05-13T04:26:00;6.18;;;2.88;;
32130;SDS011;18639;50.716;7.086;2023-05-13T04:28:25;5.63;;;2.70;;
32130;SDS011;18639;50.716;7.086;2023-05-13T04:30:51;5.63;;;2.42;;
32130;SDS011;18639;50.716;7.086;2023-05-13T04:33:16;6.65;;;2.83;;
32130;SDS011;18639;50.716;7.086;2023-05-13T04:35:41;5.80;;;2.80;;
32130;SDS011;18639;50.716;7.086;2023-05-13T04:38:06;4.28;;;2.67;;
32130;SDS011;18639;50.716;7.086;2023-05-13T04:40:32;8.20;;;3.05;;
32130;SDS011;18639;50.716;7.086;2023-05-13T04:42:57;5.18;;;2.72;;
32130;SDS011;18639;50.716;7.086;2023-05-13T04:45:22;7.82;;;2.85;;
32130;SDS011;18639;50.716;7.086;2023-05-13T04:47:48;5.22;;;2.65;;
32130;SDS011;18639;50.716;7.086;2023-05-13T04:50:14;6.75;;;2.72;;
32130;SDS011;18639;50.716;7.086;2023-05-13T04:52:39;5.65;;;2.70;;
32130;SDS011;18639;50.716;7.086;2023-05-13T04:55:07;8.35;;;3.10;;
32130;SDS011;18639;50.716;7.086;2023-05-13T04:57:33;7.25;;;3.13;;
32130;SDS011;18639;50.716;7.086;2023-05-13T04:59:58;5.10;;;2.47;;
32130;SDS011;18639;50.716;7.086;2023-05-13T05:02:24;7.75;;;3.03;;
32130;SDS011;18639;50.716;7.086;2023-05-13T05:04:49;6.10;;;3.25;;
32130;SDS011;18639;50.716;7.086;2023-05-13T05:07:14;7.40;;;3.15;;
32130;SDS011;18639;50.716;7.086;2023-05-13T05:09:39;7.55;;;3.65;;
32130;SDS011;18639;50.716;7.086;2023-05-13T05:12:05;6.03;;;3.15;;
32130;SDS011;18639;50.716;7.086;2023-05-13T05:14:30;7.82;;;2.85;;
32130;SDS011;18639;50.716;7.086;2023-05-13T05:16:56;5.93;;;2.63;;
32130;SDS011;18639;50.716;7.086;2023-05-13T05:19:21;6.82;;;3.28;;
32130;SDS011;18639;50.716;7.086;2023-05-13T05:21:47;6.15;;;2.63;;
32130;SDS011;18639;50.716;7.086;2023-05-13T05:24:13;6.35;;;2.75;;
32130;SDS011;18639;50.716;7.086;2023-05-13T05:26:38;6.22;;;2.90;;
32130;SDS011;18639;50.716;7.086;2023-05-13T05:29:03;7.65;;;3.47;;
32130;SDS011;18639;50.716;7.086;2023-05-13T05:31:29;6.85;;;2.70;;
32130;SDS011;18639;50.716;7.086;2023-05-13T05:33:54;6.30;;;2.72;;
32130;SDS011;18639;50.716;7.086;2023-05-13T05:36:20;9.23;;;4.10;;
32130;SDS011;18639;50.716;7.086;2023-05-13T05:38:45;7.47;;;3.35;;
32130;SDS011;18639;50.716;7.086;2023-05-13T05:41:11;6.28;;;2.90;;
32130;SDS011;18639;50.716;7.086;2023-05-13T05:43:37;4.60;;;2.53;;
32130;SDS011;18639;50.716;7.086;2023-05-13T05:46:02;7.70;;;3.45;;
32130;SDS011;18639;50.716;7.086;2023-05-13T05:48:28;8.68;;;3.47;;
32130;SDS011;18639;50.716;7.086;2023-05-13T05:50:54;7.00;;;3.10;;
32130;SDS011;18639;50.716;7.086;2023-05-13T05:53:20;9.95;;;4.05;;
32130;SDS011;18639;50.716;7.086;2023-05-13T05:55:45;8.00;;;3.53;;
32130;SDS011;18639;50.716;7.086;2023-05-13T05:58:13;12.73;;;3.95;;
32130;SDS011;18639;50.716;7.086;2023-05-13T06:00:39;10.30;;;4.22;;
32130;SDS011;18639;50.716;7.086;2023-05-13T06:03:04;9.98;;;4.25;;
32130;SDS011;18639;50.716;7.086;2023-05-13T06:05:29;8.68;;;3.83;;
32130;SDS011;18639;50.716;7.086;2023-05-13T06:07:54;13.80;;;4.88;;
32130;SDS011;18639;50.716;7.086;2023-05-13T06:10:20;10.70;;;4.85;;
32130;SDS011;18639;50.716;7.086;2023-05-13T06:12:45;10.52;;;4.85;;
32130;SDS011;18639;50.716;7.086;2023-05-13T06:15:10;13.13;;;4.80;;
32130;SDS011;18639;50.716;7.086;2023-05-13T06:17:36;7.95;;;3.83;;
32130;SDS011;18639;50.716;7.086;2023-05-13T06:20:02;13.55;;;4.53;;
32130;SDS011;18639;50.716;7.086;2023-05-13T06:22:28;10.88;;;4.63;;
32130;SDS011;18639;50.716;7.086;2023-05-13T06:24:53;12.10;;;4.70;;
32130;SDS011;18639;50.716;7.086;2023-05-13T06:27:19;9.07;;;4.20;;
32130;SDS011;18639;50.716;7.086;2023-05-13T06:29:44;11.52;;;4.70;;
32130;SDS011;18639;50.716;7.086;2023-05-13T06:32:09;12.07;;;4.40;;
32130;SDS011;18639;50.716;7.086;2023-05-13T06:34:35;9.95;;;4.18;;
32130;SDS011;18639;50.716;7.086;2023-05-13T06:37:00;13.23;;;5.40;;
32130;SDS011;18639;50.716;7.086;2023-05-13T06:39:25;13.75;;;5.03;;
32130;SDS011;18639;50.716;7.086;2023-05-13T06:41:51;13.07;;;5.10;;
32130;SDS011;18639;50.716;7.086;2023-05-13T06:44:16;12.70;;;4.85;;
32130;SDS011;18639;50.716;7.086;2023-05-13T06:46:41;13.70;;;5.72;;
32130;SDS011;18639;50.716;7.086;2023-05-13T06:49:06;11.88;;;4.68;;
32130;SDS011;18639;50.716;7.086;2023-05-13T06:51:33;12.07;;;4.85;;
32130;SDS011;18639;50.716;7.086;2023-05-13T06:53:58;10.85;;;5.53;;
32130;SDS011;18639;50.716;7.086;2023-05-13T06:56:24;13.57;;;6.25;;
32130;SDS011;18639;50.716;7.086;2023-05-13T06:58:50;12.27;;;5.70;;
32130;SDS011;18639;50.716;7.086;2023-05-13T07:01:16;11.80;;;5.28;;
32130;SDS011;18639;50.716;7.086;2023-05-13T07:03:42;15.20;;;5.95;;
32130;SDS011;18639;50.716;7.086;2023-05-13T07:06:07;17.77;;;6.35;;
32130;SDS011;18639;50.716;7.086;2023-05-13T07:08:33;13.98;;;6.07;;
32130;SDS011;18639;50.716;7.086;2023-05-13T07:10:58;11.88;;;5.50;;
32130;SDS011;18639;50.716;7.086;2023-05-13T07:13:23;11.45;;;5.10;;
32130;SDS011;18639;50.716;7.086;2023-05-13T07:15:49;12.18;;;5.43;;
32130;SDS011;18639;50.716;7.086;2023-05-13T07:18:14;13.85;;;5.25;;
32130;SDS011;18639;50.716;7.086;2023-05-13T07:20:40;13.70;;;6.03;;
32130;SDS011;18639;50.716;7.086;2023-05-13T07:23:05;9.82;;;4.82;;
32130;SDS011;18639;50.716;7.086;2023-05-13T07:25:30;13.05;;;5.47;;
32130;SDS011;18639;50.716;7.086;2023-05-13T07:27:55;9.20;;;4.25;;
32130;SDS011;18639;50.716;7.086;2023-05-13T07:30:21;11.15;;;4.07;;
32130;SDS011;18639;50.716;7.086;2023-05-13T07:32:46;10.30;;;4.28;;
32130;SDS011;18639;50.716;7.086;2023-05-13T07:35:12;9.88;;;4.50;;
32130;SDS011;18639;50.716;7.086;2023-05-13T07:37:37;10.10;;;4.63;;
32130;SDS011;18639;50.716;7.086;2023-05-13T07:40:04;10.80;;;5.03;;
32130;SDS011;18639;50.716;7.086;2023-05-13T07:42:30;9.20;;;4.50;;
32130;SDS011;18639;50.716;7.086;2023-05-13T07:44:55;9.80;;;4.50;;
32130;SDS011;18639;50.716;7.086;2023-05-13T07:47:21;12.85;;;5.25;;
32130;SDS011;18639;50.716;7.086;2023-05-13T07:49:46;11.77;;;5.20;;
32130;SDS011;18639;50.716;7.086;2023-05-13T07:52:11;12.43;;;6.07;;
32130;SDS011;18639;50.716;7.086;2023-05-13T07:54:37;12.85;;;5.07;;
32130;SDS011;18639;50.716;7.086;2023-05-13T07:57:02;11.52;;;5.10;;
32130;SDS011;18639;50.716;7.086;2023-05-13T07:59:27;10.70;;;5.28;;
32130;SDS011;18639;50.716;7.086;2023-05-13T08:01:53;11.32;;;5.25;;
32130;SDS011;18639;50.716;7.086;2023-05-13T08:04:18;11.45;;;4.30;;
32130;SDS011;18639;50.716;7.086;2023-05-13T08:06:43;11.18;;;4.72;;
32130;SDS011;18639;50.716;7.086;2023-05-13T08:09:09;9.77;;;4.40;;
32130;SDS011;18639;50.716;7.086;2023-05-13T08:11:36;11.20;;;4.45;;
32130;SDS011;18639;50.716;7.086;2023-05-13T08:14:01;9.45;;;5.07;;
32130;SDS011;18639;50.716;7.086;2023-05-13T08:16:27;10.45;;;4.20;;
32130;SDS011;18639;50.716;7.086;2023-05-13T08:18:52;9.73;;;4.60;;
32130;SDS011;18639;50.716;7.086;2023-05-13T08:21:17;8.38;;;4.00;;
32130;SDS011;18639;50.716;7.086;2023-05-13T08:23:43;9.40;;;4.32;;
32130;SDS011;18639;50.716;7.086;2023-05-13T08:26:08;8.00;;;3.97;;
32130;SDS011;18639;50.716;7.086;2023-05-13T08:28:33;6.18;;;3.55;;
32130;SDS011;18639;50.716;7.086;2023-05-13T08:30:58;6.90;;;4.00;;
32130;SDS011;18639;50.716;7.086;2023-05-13T08:33:27;7.47;;;3.85;;
32130;SDS011;18639;50.716;7.086;2023-05-13T08:35:54;7.10;;;3.70;;
32130;SDS011;18639;50.716;7.086;2023-05-13T08:38:19;6.28;;;3.40;;
32130;SDS011;18639;50.716;7.086;2023-05-13T08:40:44;8.55;;;3.40;;
32130;SDS011;18639;50.716;7.086;2023-05-13T08:43:10;6.28;;;3.20;;
32130;SDS011;18639;50.716;7.086;2023-05-13T08:45:39;6.40;;;3.35;;
32130;SDS011;18639;50.716;7.086;2023-05-13T08:48:06;5.63;;;3.00;;
32130;SDS011;18639;50.716;7.086;2023-05-13T08:50:33;8.43;;;3.50;;
32130;SDS011;18639;50.716;7.086;2023-05-13T08:52:58;5.57;;;3.20;;
32130;SDS011;18639;50.716;7.086;2023-05-13T08:55:26;6.63;;;3.20;;
32130;SDS011;18639;50.716;7.086;2023-05-13T08:57:52;4.70;;;2.60;;
32130;SDS011;18639;50.716;7.086;2023-05-13T09:00:18;4.32;;;2.67;;
32130;SDS011;18639;50.716;7.086;2023-05-13T09:02:44;4.85;;;2.80;;
32130;SDS011;18639;50.716;7.086;2023-05-13T09:05:10;5.07;;;2.60;;
32130;SDS011;18639;50.716;7.086;2023-05-13T09:07:36;4.72;;;3.13;;
32130;SDS011;18639;50.716;7.086;2023-05-13T09:10:02;4.13;;;2.70;;
32130;SDS011;18639;50.716;7.086;2023-05-13T09:15:14;4.05;;;2.30;;
32130;SDS011;18639;50.716;7.086;2023-05-13T09:17:42;4.82;;;2.50;;
32130;SDS011;18639;50.716;7.086;2023-05-13T09:20:10;4.95;;;2.58;;
32130;SDS011;18639;50.716;7.086;2023-05-13T09:25:18;4.32;;;2.58;;
32130;SDS011;18639;50.716;7.086;2023-05-13T09:27:48;4.10;;;2.42;;
32130;SDS011;18639;50.716;7.086;2023-05-13T09:30:15;4.63;;;3.05;;
32130;SDS011;18639;50.716;7.086;2023-05-13T09:32:40;4.43;;;2.80;;
32130;SDS011;18639;50.716;7.086;2023-05-13T09:35:07;4.38;;;2.70;;
32130;SDS011;18639;50.716;7.086;2023-05-13T09:37:45;6.75;;;2.58;;
32130;SDS011;18639;50.716;7.086;2023-05-13T09:40:13;5.13;;;2.78;;
32130;SDS011;18639;50.716;7.086;2023-05-13T09:42:40;5.20;;;2.83;;
32130;SDS011;18639;50.716;7.086;2023-05-13T09:45:14;4.78;;;2.80;;
32130;SDS011;18639;50.716;7.086;2023-05-13T09:47:40;4.47;;;2.47;;
32130;SDS011;18639;50.716;7.086;2023-05-13T09:50:06;4.93;;;2.60;;
32130;SDS011;18639;50.716;7.086;2023-05-13T09:52:33;4.07;;;2.35;;
32130;SDS011;18639;50.716;7.086;2023-05-13T09:55:00;4.35;;;2.40;;
32130;SDS011;18639;50.716;7.086;2023-05-13T09:57:29;4.40;;;2.75;;
32130;SDS011;18639;50.716;7.086;2023-05-13T09:59:59;4.32;;;2.53;;
32130;SDS011;18639;50.716;7.086;2023-05-13T10:02:25;5.05;;;2.78;;
32130;SDS011;18639;50.716;7.086;2023-05-13T10:04:52;7.00;;;2.95;;
32130;SDS011;18639;50.716;7.086;2023-05-13T10:07:22;5.13;;;2.45;;
32130;SDS011;18639;50.716;7.086;2023-05-13T10:09:53;3.83;;;2.40;;
32130;SDS011;18639;50.716;7.086;2023-05-13T10:12:31;4.43;;;2.42;;
32130;SDS011;18639;50.716;7.086;2023-05-13T10:14:59;3.97;;;2.30;;
32130;SDS011;18639;50.716;7.086;2023-05-13T10:17:25;3.40;;;2.30;;
32130;SDS011;18639;50.716;7.086;2023-05-13T10:19:51;4.82;;;2.58;;
32130;SDS011;18639;50.716;7.086;2023-05-13T10:22:30;4.15;;;2.50;;
32130;SDS011;18639;50.716;7.086;2023-05-13T10:24:57;4.75;;;2.78;;
32130;SDS011;18639;50.716;7.086;2023-05-13T10:27:31;3.40;;;2.10;;
32130;SDS011;18639;50.716;7.086;2023-05-13T10:29:58;4.18;;;2.15;;
32130;SDS011;18639;50.716;7.086;2023-05-13T10:32:26;3.47;;;2.22;;
32130;SDS011;18639;50.716;7.086;2023-05-13T10:35:27;4.05;;;2.30;;
32130;SDS011;18639;50.716;7.086;2023-05-13T10:38:01;2.88;;;1.92;;
32130;SDS011;18639;50.716;7.086;2023-05-13T10:40:35;4.45;;;2.30;;
32130;SDS011;18639;50.716;7.086;2023-05-13T10:43:22;4.40;;;2.05;;
32130;SDS011;18639;50.716;7.086;2023-05-13T10:45:55;3.47;;;2.22;;
32130;SDS011;18639;50.716;7.086;2023-05-13T10:48:22;4.10;;;2.30;;
32130;SDS011;18639;50.716;7.086;2023-05-13T10:53:18;5.28;;;2.55;;
32130;SDS011;18639;50.716;7.086;2023-05-13T10:55:49;3.38;;;2.20;;
32130;SDS011;18639;50.716;7.086;2023-05-13T10:58:17;2.88;;;2.20;;
32130;SDS011;18639;50.716;7.086;2023-05-13T11:00:43;3.17;;;1.60;;
32130;SDS011;18639;50.716;7.086;2023-05-13T11:05:39;2.45;;;1.25;;
32130;SDS011;18639;50.716;7.086;2023-05-13T11:08:05;1.73;;;1.10;;
32130;SDS011;18639;50.716;7.086;2023-05-13T11:10:30;2.42;;;1.20;;
32130;SDS011;18639;50.716;7.086;2023-05-13T11:15:58;1.85;;;1.30;;
32130;SDS011;18639;50.716;7.086;2023-05-13T11:18:28;1.60;;;1.27;;
32130;SDS011;18639;50.716;7.086;2023-05-13T11:20:54;2.45;;;1.10;;
32130;SDS011;18639;50.716;7.086;2023-05-13T11:23:20;2.60;;;1.40;;
32130;SDS011;18639;50.716;7.086;2023-05-13T11:25:46;2.72;;;1.45;;
32130;SDS011;18639;50.716;7.086;2023-05-13T11:31:40;4.75;;;2.00;;
32130;SDS011;18639;50.716;7.086;2023-05-13T11:36:43;3.88;;;1.65;;
32130;SDS011;18639;50.716;7.086;2023-05-13T11:39:21;3.70;;;2.15;;
32130;SDS011;18639;50.716;7.086;2023-05-13T11:41:50;3.38;;;2.00;;
32130;SDS011;18639;50.716;7.086;2023-05-13T11:44:21;4.63;;;2.08;;
32130;SDS011;18639;50.716;7.086;2023-05-13T11:46:47;3.83;;;2.17;;
32130;SDS011;18639;50.716;7.086;2023-05-13T11:52:04;4.00;;;2.20;;
32130;SDS011;18639;50.716;7.086;2023-05-13T11:54:32;4.90;;;2.40;;
32130;SDS011;18639;50.716;7.086;2023-05-13T11:57:12;4.60;;;2.35;;
32130;SDS011;18639;50.716;7.086;2023-05-13T12:00:00;4.25;;;2.25;;
32130;SDS011;18639;50.716;7.086;2023-05-13T12:02:31;4.03;;;2.10;;
32130;SDS011;18639;50.716;7.086;2023-05-13T12:04:59;4.20;;;2.33;;
32130;SDS011;18639;50.716;7.086;2023-05-13T12:07:26;3.08;;;1.75;;
32130;SDS011;18639;50.716;7.086;2023-05-13T12:09:52;3.65;;;1.95;;
32130;SDS011;18639;50.716;7.086;2023-05-13T12:12:20;3.20;;;1.65;;
32130;SDS011;18639;50.716;7.086;2023-05-13T12:14:46;3.30;;;1.90;;
32130;SDS011;18639;50.716;7.086;2023-05-13T12:17:14;3.75;;;2.03;;
32130;SDS011;18639;50.716;7.086;2023-05-13T12:19:59;2.83;;;1.65;;
32130;SDS011;18639;50.716;7.086;2023-05-13T12:22:28;3.40;;;2.22;;
32130;SDS011;18639;50.716;7.086;2023-05-13T12:24:54;5.35;;;2.40;;
32130;SDS011;18639;50.716;7.086;2023-05-13T12:27:19;4.50;;;2.33;;
32130;SDS011;18639;50.716;7.086;2023-05-13T12:29:45;4.60;;;2.25;;
32130;SDS011;18639;50.716;7.086;2023-05-13T12:32:10;4.03;;;1.95;;
32130;SDS011;18639;50.716;7.086;2023-05-13T12:34:35;4.18;;;2.10;;
32130;SDS011;18639;50.716;7.086;2023-05-13T12:37:12;4.35;;;2.00;;
32130;SDS011;18639;50.716;7.086;2023-05-13T12:39:40;4.03;;;1.85;;
32130;SDS011;18639;50.716;7.086;2023-05-13T12:42:13;4.93;;;2.42;;
32130;SDS011;18639;50.716;7.086;2023-05-13T12:44:43;3.83;;;2.17;;
32130;SDS011;18639;50.716;7.086;2023-05-13T12:47:09;4.90;;;2.20;;
32130;SDS011;18639;50.716;7.086;2023-05-13T12:49:49;3.42;;;1.80;;
32130;SDS011;18639;50.716;7.086;2023-05-13T12:52:16;5.65;;;2.50;;
32130;SDS011;18639;50.716;7.086;2023-05-13T12:54:41;4.90;;;2.13;;
32130;SDS011;18639;50.716;7.086;2023-05-13T12:57:09;3.78;;;2.13;;
32130;SDS011;18639;50.716;7.086;2023-05-13T12:59:35;6.25;;;2.10;;
32130;SDS011;18639;50.716;7.086;2023-05-13T13:02:00;3.10;;;1.70;;
32130;SDS011;18639;50.716;7.086;2023-05-13T13:04:25;5.28;;;2.17;;
32130;SDS011;18639;50.716;7.086;2023-05-13T13:06:50;4.22;;;1.90;;
32130;SDS011;18639;50.716;7.086;2023-05-13T13:09:16;3.72;;;2.10;;
32130;SDS011;18639;50.716;7.086;2023-05-13T13:11:41;4.22;;;2.28;;
32130;SDS011;18639;50.716;7.086;2023-05-13T13:14:06;3.28;;;1.73;;
32130;SDS011;18639;50.716;7.086;2023-05-13T13:16:32;3.15;;;1.77;;
32130;SDS011;18639;50.716;7.086;2023-05-13T13:18:57;3.92;;;1.90;;
32130;SDS011;18639;50.716;7.086;2023-05-13T13:21:24;3.50;;;1.73;;
32130;SDS011;18639;50.716;7.086;2023-05-13T13:23:49;5.05;;;2.00;;
32130;SDS011;18639;50.716;7.086;2023-05-13T13:26:15;3.28;;;1.80;;
32130;SDS011;18639;50.716;7.086;2023-05-13T13:28:40;3.55;;;1.50;;
32130;SDS011;18639;50.716;7.086;2023-05-13T13:31:06;2.67;;;1.77;;
32130;SDS011;18639;50.716;7.086;2023-05-13T13:33:32;3.03;;;1.90;;
32130;SDS011;18639;50.716;7.086;2023-05-13T13:35:57;2.80;;;1.45;;
32130;SDS011;18639;50.716;7.086;2023-05-13T13:38:22;2.72;;;1.48;;
32130;SDS011;18639;50.716;7.086;2023-05-13T13:40:48;2.85;;;1.70;;
32130;SDS011;18639;50.716;7.086;2023-05-13T13:43:13;2.80;;;1.80;;
32130;SDS011;18639;50.716;7.086;2023-05-13T13:45:38;2.97;;;1.75;;
32130;SDS011;18639;50.716;7.086;2023-05-13T13:48:04;2.50;;;1.60;;
32130;SDS011;18639;50.716;7.086;2023-05-13T13:50:30;3.35;;;1.67;;
32130;SDS011;18639;50.716;7.086;2023-05-13T13:52:55;3.88;;;1.60;;
32130;SDS011;18639;50.716;7.086;2023-05-13T13:55:21;2.33;;;1.58;;
32130;SDS011;18639;50.716;7.086;2023-05-13T13:57:47;3.25;;;1.48;;
32130;SDS011;18639;50.716;7.086;2023-05-13T14:00:13;3.28;;;1.65;;
32130;SDS011;18639;50.716;7.086;2023-05-13T14:02:39;2.65;;;1.40;;
32130;SDS011;18639;50.716;7.086;2023-05-13T14:05:05;2.58;;;1.50;;
32130;SDS011;18639;50.716;7.086;2023-05-13T14:07:30;2.33;;;1.50;;
32130;SDS011;18639;50.716;7.086;2023-05-13T14:09:56;3.45;;;1.48;;
32130;SDS011;18639;50.716;7.086;2023-05-13T14:12:21;3.38;;;1.45;;
32130;SDS011;18639;50.716;7.086;2023-05-13T14:14:46;2.42;;;1.40;;
32130;SDS011;18639;50.716;7.086;2023-05-13T14:17:12;4.28;;;1.80;;
32130;SDS011;18639;50.716;7.086;2023-05-13T14:19:37;2.90;;;1.58;;
32130;SDS011;18639;50.716;7.086;2023-05-13T14:22:02;3.33;;;1.73;;
32130;SDS011;18639;50.716;7.086;2023-05-13T14:24:28;3.35;;;1.63;;
32130;SDS011;18639;50.716;7.086;2023-05-13T14:26:53;2.80;;;1.63;;
32130;SDS011;18639;50.716;7.086;2023-05-13T14:29:19;3.10;;;1.73;;
32130;SDS011;18639;50.716;7.086;2023-05-13T14:31:44;3.10;;;1.83;;
32130;SDS011;18639;50.716;7.086;2023-05-13T14:34:09;5.15;;;1.70;;
32130;SDS011;18639;50.716;7.086;2023-05-13T14:36:35;3.33;;;1.73;;
32130;SDS011;18639;50.716;7.086;2023-05-13T14:39:00;3.85;;;1.70;;
32130;SDS011;18639;50.716;7.086;2023-05-13T14:41:25;4.30;;;1.60;;
32130;SDS011;18639;50.716;7.086;2023-05-13T14:43:51;2.88;;;1.80;;
32130;SDS011;18639;50.716;7.086;2023-05-13T14:46:16;2.83;;;1.50;;
32130;SDS011;18639;50.716;7.086;2023-05-13T14:48:41;2.40;;;1.25;;
32130;SDS011;18639;50.716;7.086;2023-05-13T14:51:07;1.77;;;1.27;;
32130;SDS011;18639;50.716;7.086;2023-05-13T14:53:32;4.20;;;1.95;;
32130;SDS011;18639;50.716;7.086;2023-05-13T14:55:57;4.30;;;1.85;;
32130;SDS011;18639;50.716;7.086;2023-05-13T14:58:23;2.55;;;1.55;;
32130;SDS011;18639;50.716;7.086;2023-05-13T15:00:48;2.83;;;1.40;;
32130;SDS011;18639;50.716;7.086;2023-05-13T15:03:14;2.25;;;1.40;;
32130;SDS011;18639;50.716;7.086;2023-05-13T15:05:40;2.25;;;1.42;;
32130;SDS011;18639;50.716;7.086;2023-05-13T15:08:06;2.70;;;1.52;;
32130;SDS011;18639;50.716;7.086;2023-05-13T15:10:32;3.35;;;1.70;;